Time;durP1;ratioP1;P1;durP2;ratioP2;P2;SDS_P1;SDS_P2;PMS_P1;PMS_P2;Temp;Humidity;BMP_temperature;BMP_pressure;BME280_temperature;BME280_humidity;BME280_pressure;Samples;Min_cycle;Max_cycle;Signal;HPM_P1;HPM_P2
2022/04/07 00:01:13;;;;;;;6.47;2.10;;;;;;;8.72;86.94;99205.19;5088660;28;20731;-88
2022/04/07 00:04:07;;;;;;;5.93;1.90;;;;;;;8.73;87.00;99201.53;5100742;28;20352;-88
2022/04/07 00:06:32;;;;;;;7.70;2.65;;;;;;;8.69;86.63;99191.25;5078058;28;20583;-88
2022/04/07 00:09:01;;;;;;;6.05;2.30;;;;;;;8.70;86.31;99181.50;5087352;28;20036;-88
2022/04/07 00:11:30;;;;;;;8.70;2.60;;;;;;;8.71;86.14;99199.06;5086150;28;20142;-87
2022/04/07 00:14:04;;;;;;;6.13;2.10;;;;;;;8.69;86.58;99180.69;5079371;28;20027;-88
2022/04/07 00:16:34;;;;;;;3.53;1.88;;;;;;;8.67;85.65;99172.03;5079024;28;20028;-88
2022/04/07 00:19:18;;;;;;;5.82;1.98;;;;;;;8.65;86.37;99174.00;5079792;28;20052;-88
2022/04/07 00:24:42;;;;;;;5.85;1.92;;;;;;;8.65;86.20;99168.69;5045954;28;20040;-87
2022/04/07 00:27:07;;;;;;;5.78;1.80;;;;;;;8.64;86.06;99143.25;5052679;28;20045;-87
2022/04/07 00:29:41;;;;;;;7.88;2.75;;;;;;;8.67;86.31;99153.50;5072162;28;20460;-88
2022/04/07 00:32:07;;;;;;;7.68;2.00;;;;;;;8.66;86.21;99145.72;5055513;28;20047;-88
2022/04/07 00:34:35;;;;;;;7.50;2.28;;;;;;;8.65;86.38;99150.19;5037300;28;20107;-88
2022/04/07 00:37:00;;;;;;;5.43;2.40;;;;;;;8.66;86.47;99135.97;5057525;28;20039;-88
2022/04/07 00:39:29;;;;;;;7.18;2.20;;;;;;;8.64;86.64;99132.66;5070926;28;20115;-88
2022/04/07 00:42:15;;;;;;;8.57;2.60;;;;;;;8.66;86.51;99114.81;5071799;28;20025;-88
2022/04/07 00:44:40;;;;;;;8.88;2.53;;;;;;;8.62;86.34;99121.34;5053239;28;20307;-88
2022/04/07 00:47:07;;;;;;;9.70;2.25;;;;;;;8.63;86.04;99106.31;5073623;28;20024;-88
2022/04/07 00:49:33;;;;;;;7.32;2.80;;;;;;;8.63;86.32;99098.38;5094342;28;20060;-88
2022/04/07 00:51:59;;;;;;;12.00;2.50;;;;;;;8.64;86.55;99116.78;5083470;28;20040;-88
2022/04/07 00:54:31;;;;;;;6.45;2.53;;;;;;;8.62;87.34;99102.00;5070880;28;20051;-88
2022/04/07 00:57:00;;;;;;;10.20;2.95;;;;;;;8.62;87.43;99096.72;5078449;28;20020;-88
2022/04/07 00:59:38;;;;;;;7.13;2.90;;;;;;;8.59;87.50;99103.13;5077366;28;20016;-87
2022/04/07 01:02:04;;;;;;;8.98;3.30;;;;;;;8.56;87.92;99102.59;5073011;28;20048;-88
2022/04/07 01:04:29;;;;;;;6.97;2.55;;;;;;;8.59;88.19;99097.81;5070052;28;20112;-88
2022/04/07 01:06:55;;;;;;;9.27;2.85;;;;;;;8.54;88.52;99080.75;5060406;28;20303;-89
2022/04/07 01:09:21;;;;;;;7.65;2.50;;;;;;;8.55;88.63;99071.84;5074640;28;20372;-88
2022/04/07 01:11:47;;;;;;;6.75;2.95;;;;;;;8.49;89.38;99073.25;5071410;28;20043;-88
2022/04/07 01:14:12;;;;;;;8.57;2.53;;;;;;;8.49;89.47;99073.25;5075360;28;20031;-88
2022/04/07 01:16:38;;;;;;;8.25;2.83;;;;;;;8.46;89.21;99076.19;5073800;28;20051;-88
2022/04/07 01:19:04;;;;;;;5.65;2.60;;;;;;;8.47;88.79;99073.38;5072612;28;20032;-88
2022/04/07 01:21:31;;;;;;;10.75;2.97;;;;;;;8.48;89.03;99063.66;5074831;28;20028;-88
2022/04/07 01:24:05;;;;;;;9.82;2.40;;;;;;;8.45;89.25;99059.47;5072571;28;20024;-87
2022/04/07 01:26:32;;;;;;;8.45;2.92;;;;;;;8.44;88.94;99046.41;5058240;28;20056;-87
2022/04/07 01:29:01;;;;;;;10.57;2.80;;;;;;;8.45;88.32;99048.91;5062745;28;20032;-87
2022/04/07 01:31:27;;;;;;;6.40;2.20;;;;;;;8.48;87.90;99035.38;5094345;28;20094;-88
2022/04/07 01:33:57;;;;;;;7.10;2.65;;;;;;;8.49;87.81;99029.13;5088618;28;20020;-87
2022/04/07 01:36:24;;;;;;;10.30;3.00;;;;;;;8.50;87.47;99008.78;5110836;28;20032;-87
2022/04/07 01:38:50;;;;;;;14.38;2.97;;;;;;;8.50;87.21;99020.19;5096649;28;20191;-86
2022/04/07 01:41:21;;;;;;;8.60;2.53;;;;;;;8.52;87.33;99010.25;5089890;28;20037;-87
2022/04/07 01:43:49;;;;;;;9.98;2.85;;;;;;;8.56;86.57;98997.59;5093397;28;20036;-87
2022/04/07 01:46:15;;;;;;;8.73;2.80;;;;;;;8.55;86.99;98992.44;5091707;28;20023;-88
2022/04/07 01:48:42;;;;;;;8.82;2.80;;;;;;;8.54;87.08;98994.25;5082384;28;20029;-87
2022/04/07 01:51:11;;;;;;;6.20;2.25;;;;;;;8.55;86.83;98987.97;5064889;28;20021;-88
2022/04/07 01:53:41;;;;;;;6.05;2.65;;;;;;;8.55;87.24;98989.81;5056440;28;20020;-87
2022/04/07 01:56:15;;;;;;;9.27;2.50;;;;;;;8.57;86.91;99001.88;5066354;28;20035;-88
2022/04/07 01:58:46;;;;;;;4.03;2.25;;;;;;;8.59;87.06;98978.75;5097370;28;20028;-88
2022/04/07 02:01:27;;;;;;;10.18;2.65;;;;;;;8.55;87.04;98974.75;5079234;28;20371;-87
2022/04/07 02:03:53;;;;;;;9.35;2.80;;;;;;;8.54;87.18;98964.31;5079658;28;20024;-88
2022/04/07 02:06:19;;;;;;;11.65;3.00;;;;;;;8.56;87.33;98970.28;5079272;28;20484;-87
2022/04/07 02:08:46;;;;;;;9.20;2.88;;;;;;;8.56;87.69;98973.78;5084792;28;20032;-88
2022/04/07 02:11:14;;;;;;;11.20;2.80;;;;;;;8.52;87.92;98970.56;5099061;28;20027;-87
2022/04/07 02:13:41;;;;;;;9.23;2.85;;;;;;;8.55;88.17;98966.81;5093634;28;20114;-87
2022/04/07 02:16:08;;;;;;;9.50;2.67;;;;;;;8.53;88.12;98963.50;5075699;28;20032;-87
2022/04/07 02:18:34;;;;;;;12.95;3.00;;;;;;;8.51;87.80;98968.94;5058152;28;20036;-88
2022/04/07 02:21:00;;;;;;;10.27;2.90;;;;;;;8.49;87.80;98954.19;5075340;28;20521;-88
2022/04/07 02:23:41;;;;;;;11.70;2.88;;;;;;;8.50;87.20;98940.78;5094612;28;20028;-88
2022/04/07 02:26:16;;;;;;;12.68;3.30;;;;;;;8.59;86.81;98954.09;5127767;22;20058;-63
2022/04/07 02:28:41;;;;;;;8.43;2.70;;;;;;;8.58;86.74;98952.47;5128042;27;20023;-64
2022/04/07 02:31:07;;;;;;;13.00;3.05;;;;;;;8.60;86.56;98950.50;5130984;27;20031;-63
2022/04/07 02:33:34;;;;;;;8.90;3.03;;;;;;;8.58;86.56;98939.22;5134976;27;20027;-64
2022/04/07 02:36:09;;;;;;;16.08;3.13;;;;;;;8.61;86.03;98949.50;5115026;27;20489;-63
2022/04/07 02:38:35;;;;;;;11.48;2.90;;;;;;;8.63;85.76;98937.78;5114549;28;20034;-63
2022/04/07 02:41:01;;;;;;;11.05;2.80;;;;;;;8.65;85.82;98929.69;5114149;28;20122;-64
2022/04/07 02:43:26;;;;;;;10.65;3.58;;;;;;;8.69;85.24;98925.75;5121289;27;20152;-63
2022/04/07 02:45:51;;;;;;;13.18;3.35;;;;;;;8.69;85.24;98933.69;5134597;27;20034;-63
2022/04/07 02:48:17;;;;;;;11.77;2.90;;;;;;;8.70;84.89;98922.13;5134724;27;20140;-64
2022/04/07 02:50:43;;;;;;;7.78;2.78;;;;;;;8.72;84.62;98914.03;5126437;27;20032;-63
2022/04/07 02:53:09;;;;;;;10.93;2.80;;;;;;;8.73;84.50;98905.09;5130064;27;20077;-64
2022/04/07 02:55:34;;;;;;;9.75;2.80;;;;;;;8.74;84.35;98898.81;5114065;28;20019;-64
2022/04/07 02:58:00;;;;;;;8.52;2.55;;;;;;;8.75;83.77;98890.72;5113927;27;20424;-63
2022/04/07 03:00:25;;;;;;;12.73;3.00;;;;;;;8.78;84.09;98886.97;5120482;27;20016;-64
2022/04/07 03:02:51;;;;;;;12.93;2.80;;;;;;;8.78;83.88;98881.66;5134480;27;20031;-63
2022/04/07 03:05:16;;;;;;;7.15;2.88;;;;;;;8.79;83.80;98884.16;5134429;27;20089;-64
2022/04/07 03:07:42;;;;;;;12.20;3.15;;;;;;;8.79;83.49;98864.78;5131993;27;20039;-64
2022/04/07 03:10:07;;;;;;;14.57;2.67;;;;;;;8.83;83.09;98859.03;5113829;28;20031;-63
2022/04/07 03:12:33;;;;;;;8.18;3.00;;;;;;;8.82;83.32;98867.13;5113815;28;20505;-63
2022/04/07 03:14:58;;;;;;;8.48;2.65;;;;;;;8.86;82.71;98857.91;5113373;27;20054;-63
2022/04/07 03:17:23;;;;;;;10.52;2.90;;;;;;;8.84;82.91;98855.41;5129468;27;20064;-64
2022/04/07 03:19:49;;;;;;;10.27;2.80;;;;;;;8.89;82.44;98857.56;5113457;28;20020;-63
2022/04/07 03:22:15;;;;;;;11.73;3.70;;;;;;;8.89;82.28;98824.00;5113802;28;20116;-63
2022/04/07 03:24:41;;;;;;;9.23;2.60;;;;;;;8.94;81.62;98817.38;5113403;27;20046;-64
2022/04/07 03:27:07;;;;;;;9.90;2.65;;;;;;;8.97;81.71;98825.84;5113079;28;20047;-64
2022/04/07 03:29:32;;;;;;;10.95;3.08;;;;;;;8.95;81.49;98819.88;5113526;28;20108;-63
2022/04/07 03:31:58;;;;;;;13.48;2.97;;;;;;;8.94;81.13;98826.16;5111715;28;20316;-63
2022/04/07 03:34:24;;;;;;;8.77;2.47;;;;;;;8.94;81.76;98820.84;5118304;27;20387;-64
2022/04/07 03:36:49;;;;;;;13.40;2.55;;;;;;;8.93;81.56;98815.75;5133688;27;20110;-64
2022/04/07 03:39:14;;;;;;;10.63;2.40;;;;;;;8.94;81.37;98818.22;5133803;27;20023;-63
2022/04/07 03:41:40;;;;;;;12.53;2.80;;;;;;;8.94;81.08;98804.97;5115504;27;20145;-64
2022/04/07 03:44:07;;;;;;;9.10;2.75;;;;;;;8.96;81.25;98802.16;5113081;28;20273;-64
2022/04/07 03:46:33;;;;;;;9.00;2.45;;;;;;;8.93;81.27;98798.03;5112748;27;20472;-61
2022/04/07 03:48:58;;;;;;;11.65;3.35;;;;;;;8.94;81.05;98793.56;5113195;28;20024;-61
2022/04/07 03:51:23;;;;;;;9.63;2.80;;;;;;;8.96;80.96;98788.94;5112939;28;20035;-61
2022/04/07 03:53:49;;;;;;;9.48;3.20;;;;;;;8.94;81.21;98783.78;5112667;27;20031;-61
2022/04/07 03:56:14;;;;;;;11.75;3.70;;;;;;;8.95;81.25;98782.81;5112890;28;20024;-61
2022/04/07 03:58:39;;;;;;;9.52;2.90;;;;;;;8.95;81.20;98776.69;5112678;27;20047;-61
2022/04/07 04:01:05;;;;;;;12.45;2.53;;;;;;;8.94;80.84;98765.25;5113197;28;20038;-64
2022/04/07 04:03:30;;;;;;;10.13;2.90;;;;;;;8.94;81.57;98759.97;5112651;27;20031;-64
2022/04/07 04:05:55;;;;;;;15.20;3.35;;;;;;;8.94;80.64;98740.59;5112923;28;20498;-64
2022/04/07 04:08:21;;;;;;;8.68;2.60;;;;;;;8.94;80.59;98738.78;5111559;28;20495;-63
2022/04/07 04:10:46;;;;;;;8.63;2.50;;;;;;;8.95;80.65;98737.81;5112475;28;20028;-64
2022/04/07 04:13:12;;;;;;;8.93;2.47;;;;;;;8.93;81.04;98717.78;5112542;27;20027;-64
2022/04/07 04:15:37;;;;;;;7.53;2.20;;;;;;;8.94;80.54;98712.31;5112405;28;20050;-64
2022/04/07 04:18:02;;;;;;;9.23;2.50;;;;;;;8.94;80.86;98696.41;5112581;28;20024;-64
2022/04/07 04:20:27;;;;;;;5.90;2.42;;;;;;;8.98;80.55;98689.00;5110718;28;20122;-64
2022/04/07 04:22:53;;;;;;;6.90;2.70;;;;;;;9.01;80.43;98667.47;5112066;27;20032;-64
2022/04/07 04:25:18;;;;;;;6.97;2.30;;;;;;;9.01;80.16;98665.69;5112337;28;20028;-64
2022/04/07 04:27:43;;;;;;;6.75;2.00;;;;;;;9.00;80.45;98657.91;5111779;27;20093;-64
2022/04/07 04:30:10;;;;;;;7.00;2.20;;;;;;;8.99;80.23;98645.63;5112183;28;20477;-64
2022/04/07 04:32:35;;;;;;;6.18;2.10;;;;;;;9.04;79.87;98661.88;5112359;28;20265;-64
2022/04/07 04:35:01;;;;;;;7.80;2.03;;;;;;;9.07;79.57;98664.19;5111894;28;20493;-64
2022/04/07 04:37:27;;;;;;;7.50;2.05;;;;;;;9.05;79.88;98652.94;5110670;28;20023;-64
2022/04/07 04:39:53;;;;;;;9.60;2.50;;;;;;;9.07;79.84;98640.38;5111811;27;20054;-65
2022/04/07 04:42:19;;;;;;;6.60;2.10;;;;;;;9.07;80.05;98637.72;5112484;28;20020;-64
2022/04/07 04:44:45;;;;;;;7.30;2.30;;;;;;;9.06;80.77;98647.50;5111855;28;20517;-64
2022/04/07 04:47:11;;;;;;;6.45;1.98;;;;;;;9.06;81.35;98636.09;5112054;28;20035;-64
2022/04/07 04:49:40;;;;;;;6.30;2.00;;;;;;;9.05;81.96;98631.75;5111881;27;20020;-64
2022/04/07 04:52:05;;;;;;;5.05;1.92;;;;;;;9.01;82.67;98633.91;5111872;28;20050;-64
2022/04/07 04:54:32;;;;;;;6.85;2.13;;;;;;;9.04;82.53;98614.22;5125137;27;20146;-64
2022/04/07 04:56:57;;;;;;;3.92;1.98;;;;;;;9.01;83.85;98602.13;5132028;27;20027;-64
2022/04/07 04:59:23;;;;;;;5.65;1.70;;;;;;;9.00;83.93;98602.28;5132102;27;20111;-64
2022/04/07 05:01:48;;;;;;;3.92;1.85;;;;;;;9.00;84.06;98591.72;5132101;27;20019;-64
2022/04/07 05:04:13;;;;;;;3.70;1.63;;;;;;;8.94;84.85;98577.28;5119463;27;20429;-64
2022/04/07 05:06:38;;;;;;;2.88;1.58;;;;;;;8.93;84.69;98557.13;5110738;28;20015;-64
2022/04/07 05:09:04;;;;;;;5.13;1.77;;;;;;;8.91;84.77;98550.31;5111493;28;20031;-64
2022/04/07 05:11:29;;;;;;;4.07;1.83;;;;;;;8.85;85.17;98546.50;5110322;28;20039;-63
2022/04/07 05:13:54;;;;;;;4.53;1.90;;;;;;;8.85;85.23;98570.34;5111210;28;20020;-64
2022/04/07 05:16:20;;;;;;;3.58;1.70;;;;;;;8.84;85.14;98561.56;5111221;28;20624;-64
2022/04/07 05:18:47;;;;;;;3.35;1.35;;;;;;;8.84;85.24;98552.78;5111286;28;20035;-64
2022/04/07 05:21:14;;;;;;;2.35;1.58;;;;;;;8.83;85.30;98551.97;5111403;28;20038;-64
2022/04/07 05:23:40;;;;;;;3.45;1.95;;;;;;;8.81;85.44;98543.38;5111160;28;20498;-64
2022/04/07 05:26:05;;;;;;;4.78;1.70;;;;;;;8.82;85.76;98533.59;5110872;28;20052;-64
2022/04/07 05:28:30;;;;;;;4.90;2.08;;;;;;;8.80;86.65;98511.75;5111196;28;20058;-63
2022/04/07 05:30:56;;;;;;;2.70;1.58;;;;;;;8.77;86.42;98510.25;5110796;28;20027;-64
2022/04/07 05:33:21;;;;;;;5.80;2.15;;;;;;;8.78;86.67;98511.09;5110728;28;20047;-64
2022/04/07 05:35:47;;;;;;;5.28;2.10;;;;;;;8.74;87.33;98515.88;5117666;27;20027;-64
2022/04/07 05:38:12;;;;;;;3.78;2.33;;;;;;;8.70;88.56;98510.09;5111049;28;20058;-64
2022/04/07 05:40:37;;;;;;;2.55;2.00;;;;;;;8.67;88.89;98502.47;5110998;28;20477;-64
2022/04/07 05:43:04;;;;;;;5.63;2.70;;;;;;;8.59;90.68;98483.09;5110857;28;20027;-64
2022/04/07 05:45:29;;;;;;;4.47;2.50;;;;;;;8.53;91.18;98481.94;5110924;28;20307;-64
2022/04/07 05:47:55;;;;;;;4.57;2.55;;;;;;;8.48;91.43;98479.78;5110402;28;20469;-63
2022/04/07 05:50:20;;;;;;;7.15;2.70;;;;;;;8.45;91.68;98463.41;5110931;28;20393;-64
2022/04/07 05:52:46;;;;;;;5.00;2.65;;;;;;;8.43;91.79;98457.47;5110707;28;20028;-64
2022/04/07 05:55:11;;;;;;;5.40;2.80;;;;;;;8.39;92.04;98454.25;5110871;28;20023;-63
2022/04/07 05:57:37;;;;;;;10.55;3.08;;;;;;;8.38;92.34;98446.53;5110537;28;20020;-64
2022/04/07 06:00:10;;;;;;;5.15;2.85;;;;;;;8.33;92.62;98442.53;5110774;28;20042;-63
2022/04/07 06:02:36;;;;;;;6.88;2.85;;;;;;;8.34;92.57;98438.06;5110712;28;20496;-63
2022/04/07 06:05:01;;;;;;;6.88;3.15;;;;;;;8.33;92.46;98429.31;5110807;28;20054;-63
2022/04/07 06:07:26;;;;;;;7.55;3.05;;;;;;;8.33;92.35;98418.72;5110810;28;20072;-63
2022/04/07 06:09:52;;;;;;;6.00;3.20;;;;;;;8.31;92.44;98418.06;5110665;28;20051;-63
2022/04/07 06:12:17;;;;;;;8.10;3.50;;;;;;;8.31;93.06;98409.28;5110497;28;20778;-64
2022/04/07 06:14:42;;;;;;;6.50;3.50;;;;;;;8.29;92.63;98413.91;5110524;28;20023;-64
2022/04/07 06:17:07;;;;;;;7.90;3.27;;;;;;;8.28;92.88;98407.00;5110510;28;20377;-63
2022/04/07 06:19:33;;;;;;;9.85;3.60;;;;;;;8.27;92.90;98390.28;5110687;28;20289;-63
2022/04/07 06:21:58;;;;;;;6.50;3.03;;;;;;;8.28;92.64;98378.72;5110282;28;20034;-64
2022/04/07 06:24:23;;;;;;;8.10;3.28;;;;;;;8.26;92.75;98370.13;5110648;28;20036;-63
2022/04/07 06:26:49;;;;;;;7.30;3.42;;;;;;;8.26;93.16;98377.22;5110131;28;20075;-64
2022/04/07 06:29:15;;;;;;;6.80;3.00;;;;;;;8.23;93.54;98362.53;5110409;28;20419;-63
2022/04/07 06:31:40;;;;;;;8.75;3.08;;;;;;;8.22;93.74;98355.56;5110561;28;20031;-64
2022/04/07 06:34:05;;;;;;;7.30;2.75;;;;;;;8.25;93.41;98359.72;5110390;28;20035;-64
2022/04/07 06:36:30;;;;;;;7.73;3.37;;;;;;;8.20;93.85;98351.44;5108291;28;20028;-63
2022/04/07 06:38:56;;;;;;;7.10;2.92;;;;;;;8.20;94.19;98351.44;5130328;28;20649;-64
2022/04/07 06:41:21;;;;;;;7.80;2.65;;;;;;;8.18;94.15;98338.38;5129500;27;20051;-64
2022/04/07 06:43:46;;;;;;;8.40;2.42;;;;;;;8.18;94.53;98335.75;5122287;27;20024;-64
2022/04/07 06:46:12;;;;;;;8.27;2.83;;;;;;;8.16;94.54;98324.50;5119424;27;20039;-64
2022/04/07 06:48:37;;;;;;;5.82;2.10;;;;;;;8.18;94.51;98322.53;5134095;27;20389;-63
2022/04/07 06:51:02;;;;;;;7.22;2.40;;;;;;;8.17;94.63;98305.00;5134071;27;20039;-64
2022/04/07 06:53:28;;;;;;;5.22;2.30;;;;;;;8.15;95.04;98291.13;5130034;27;20077;-64
2022/04/07 06:55:53;;;;;;;6.95;2.20;;;;;;;8.14;94.99;98279.72;5113657;27;20538;-64
2022/04/07 06:58:18;;;;;;;10.13;2.25;;;;;;;8.17;94.52;98283.84;5112380;27;20042;-63
2022/04/07 07:00:45;;;;;;;10.40;2.22;;;;;;;8.14;94.73;98263.00;5114625;27;20035;-63
2022/04/07 07:03:12;;;;;;;5.07;1.90;;;;;;;8.11;95.33;98264.19;5114470;27;20080;-64
2022/04/07 07:05:38;;;;;;;5.88;2.17;;;;;;;8.11;95.54;98247.47;5112605;27;20363;-64
2022/04/07 07:08:11;;;;;;;5.53;2.03;;;;;;;8.10;95.71;98244.03;5112080;27;20152;-64
2022/04/07 07:10:37;;;;;;;5.47;2.40;;;;;;;8.08;96.14;98238.09;5112472;27;20039;-64
2022/04/07 07:13:02;;;;;;;9.93;2.58;;;;;;;8.09;96.73;98225.69;5112967;28;20095;-64
2022/04/07 07:15:27;;;;;;;4.55;2.22;;;;;;;8.09;96.72;98220.38;5112190;27;20039;-64
2022/04/07 07:17:53;;;;;;;6.40;2.13;;;;;;;8.09;97.01;98196.59;5112396;27;20038;-63
2022/04/07 07:20:21;;;;;;;6.50;2.45;;;;;;;8.08;97.33;98194.97;5115297;27;20565;-63
2022/04/07 07:22:47;;;;;;;4.68;2.30;;;;;;;8.09;97.37;98184.22;5134260;27;20142;-64
2022/04/07 07:25:12;;;;;;;6.53;2.40;;;;;;;8.12;97.67;98190.97;5122652;27;20142;-63
2022/04/07 07:27:39;;;;;;;7.05;2.22;;;;;;;8.12;97.88;98180.41;5113504;28;20040;-64
2022/04/07 07:30:09;;;;;;;5.43;2.10;;;;;;;8.13;97.86;98169.66;5113711;27;20039;-64
2022/04/07 07:32:39;;;;;;;6.47;2.25;;;;;;;8.15;98.06;98157.09;5113388;28;20031;-64
2022/04/07 07:35:04;;;;;;;;;;;;;;;8.22;96.88;98157.25;5113176;27;20044;-64
2022/04/07 07:37:30;;;;;;;6.35;2.25;;;;;;;8.24;97.88;98139.38;5117935;27;19915;-64
2022/04/07 07:39:56;;;;;;;4.18;2.00;;;;;;;8.27;98.67;98144.34;5132676;27;20114;-64
2022/04/07 07:42:21;;;;;;;5.28;2.03;;;;;;;8.30;98.99;98138.72;5132887;27;20094;-63
2022/04/07 07:44:46;;;;;;;3.25;1.88;;;;;;;8.34;99.29;98157.72;5117435;27;20056;-63
2022/04/07 07:47:11;;;;;;;5.38;2.60;;;;;;;8.36;100.00;98300.38;5130242;27;20054;-62
2022/04/07 07:49:37;;;;;;;6.30;1.77;;;;;;;8.10;93.23;98335.72;5114306;27;20031;-63
2022/04/07 07:52:03;;;;;;;4.72;1.20;;;;;;;7.81;89.69;98338.81;5114520;28;20043;-63
2022/04/07 07:54:28;;;;;;;4.85;1.30;;;;;;;7.58;90.62;98337.59;5128236;27;20093;-63
2022/04/07 07:56:54;;;;;;;3.20;1.10;;;;;;;7.44;90.54;98334.75;5114244;28;20019;-63
2022/04/07 07:59:20;;;;;;;2.72;1.20;;;;;;;7.31;91.12;98324.63;5113175;27;20114;-63
2022/04/07 08:01:48;;;;;;;3.50;1.20;;;;;;;7.21;91.27;98325.56;5112852;28;20031;-63
2022/04/07 08:04:15;;;;;;;3.75;1.70;;;;;;;7.16;92.45;98308.53;5112873;27;20114;-63
2022/04/07 08:06:41;;;;;;;3.03;1.42;;;;;;;7.05;91.61;98317.56;5112589;28;20035;-63
2022/04/07 08:09:06;;;;;;;3.28;1.92;;;;;;;7.01;92.11;98306.50;5112526;28;20038;-63
2022/04/07 08:11:31;;;;;;;4.82;1.20;;;;;;;6.95;91.88;98304.50;5112824;28;20055;-64
2022/04/07 08:13:57;;;;;;;3.58;1.30;;;;;;;6.92;92.71;98309.25;5112649;28;20397;-63
2022/04/07 08:16:23;;;;;;;2.30;1.20;;;;;;;6.87;92.00;98293.06;5112264;27;20106;-62
2022/04/07 08:18:48;;;;;;;2.72;1.52;;;;;;;6.83;92.75;98287.28;5113636;28;20465;-63
2022/04/07 08:21:13;;;;;;;4.03;1.40;;;;;;;6.86;93.35;98297.50;5114265;28;20039;-63
2022/04/07 08:23:38;;;;;;;3.95;1.40;;;;;;;6.88;94.04;98297.34;5113556;27;20023;-61
2022/04/07 08:26:04;;;;;;;6.22;1.50;;;;;;;6.89;93.94;98304.28;5112263;27;20092;-60
2022/04/07 08:28:29;;;;;;;4.75;1.40;;;;;;;6.92;94.86;98288.97;5112609;28;20476;-61
2022/04/07 08:30:54;;;;;;;2.45;1.02;;;;;;;6.92;94.21;98273.13;5112639;28;20024;-61
2022/04/07 08:33:19;;;;;;;3.42;1.40;;;;;;;6.96;94.91;98286.84;5112520;28;20488;-62
2022/04/07 08:35:45;;;;;;;1.63;1.33;;;;;;;6.98;95.47;98290.16;5112187;28;20040;-63
2022/04/07 08:38:14;;;;;;;4.40;1.30;;;;;;;7.05;96.82;98304.38;5112340;28;20027;-63
2022/04/07 08:40:41;;;;;;;2.92;1.33;;;;;;;7.11;96.87;98285.28;5112458;27;20031;-63
2022/04/07 08:43:08;;;;;;;4.82;1.67;;;;;;;7.17;96.45;98292.53;5112514;28;20027;-63
2022/04/07 08:45:35;;;;;;;5.80;1.38;;;;;;;7.22;96.42;98282.34;5112366;28;20389;-63
2022/04/07 08:48:02;;;;;;;7.78;1.80;;;;;;;7.27;96.58;98273.13;5111130;28;20043;-63
2022/04/07 08:50:27;;;;;;;5.85;2.00;;;;;;;7.36;97.00;98280.06;5110343;28;20020;-63
2022/04/07 08:52:53;;;;;;;6.18;1.90;;;;;;;7.42;97.32;98276.78;5128319;27;20400;-64
2022/04/07 08:55:19;;;;;;;5.43;1.90;;;;;;;7.48;97.50;98278.00;5127112;27;20026;-63
2022/04/07 08:57:44;;;;;;;7.30;2.00;;;;;;;7.59;97.98;98281.16;5123143;27;20036;-63
2022/04/07 09:00:10;;;;;;;5.28;2.10;;;;;;;7.76;97.63;98281.16;5128070;27;20022;-63
2022/04/07 09:02:35;;;;;;;5.10;2.00;;;;;;;7.94;98.40;98276.59;5129781;27;20022;-64
2022/04/07 09:05:00;;;;;;;6.97;2.53;;;;;;;8.07;98.17;98268.13;5129397;27;20031;-63
2022/04/07 09:07:33;;;;;;;6.70;2.25;;;;;;;8.20;97.20;98275.59;5128026;27;20080;-64
2022/04/07 09:10:00;;;;;;;3.85;2.03;;;;;;;8.33;96.67;98280.38;5129629;27;20109;-63
2022/04/07 09:12:26;;;;;;;6.95;2.42;;;;;;;8.44;95.85;98277.44;5130108;27;20015;-63
2022/04/07 09:14:59;;;;;;;5.20;2.10;;;;;;;8.50;95.69;98273.28;5126054;27;20045;-64
2022/04/07 09:17:26;;;;;;;6.00;2.20;;;;;;;8.58;95.36;98275.91;5116831;27;20027;-63
2022/04/07 09:19:52;;;;;;;5.90;2.17;;;;;;;8.67;95.77;98282.81;5110821;28;20029;-64
2022/04/07 09:22:17;;;;;;;3.30;2.40;;;;;;;8.86;96.72;98291.41;5111647;28;20110;-64
2022/04/07 09:24:43;;;;;;;3.38;2.42;;;;;;;9.03;96.13;98282.41;5111560;28;20564;-64
2022/04/07 09:27:11;;;;;;;3.33;2.80;;;;;;;9.26;96.38;98279.84;5110670;27;20105;-64
2022/04/07 09:29:41;;;;;;;4.88;3.22;;;;;;;9.45;94.63;98283.06;5111470;28;20031;-64
2022/04/07 09:32:24;;;;;;;6.80;2.90;;;;;;;9.59;92.68;98281.50;5125223;27;20028;-64
2022/04/07 09:34:53;;;;;;;4.80;3.75;;;;;;;9.85;94.48;98297.09;5125042;27;20043;-64
2022/04/07 09:37:20;;;;;;;7.28;3.72;;;;;;;10.03;91.50;98299.44;5116790;27;20464;-64
2022/04/07 09:39:46;;;;;;;3.80;3.22;;;;;;;10.11;89.38;98294.09;5117742;27;20442;-64
2022/04/07 09:42:27;;;;;;;8.23;3.13;;;;;;;10.25;89.34;98307.59;5103665;27;20023;-64
2022/04/07 09:44:57;;;;;;;4.47;2.42;;;;;;;10.28;83.10;98297.44;5129617;27;20031;-64
2022/04/07 09:47:23;;;;;;;5.25;2.03;;;;;;;10.36;80.44;98297.41;5126327;27;20023;-64
2022/04/07 09:49:49;;;;;;;5.82;2.63;;;;;;;10.33;79.78;98302.25;5110598;28;20425;-64
2022/04/07 09:52:20;;;;;;;5.30;2.75;;;;;;;10.32;78.03;98303.25;5110895;28;20058;-64
2022/04/07 09:54:50;;;;;;;4.38;1.88;;;;;;;10.33;76.21;98288.97;5110657;28;20031;-64
2022/04/07 09:57:16;;;;;;;5.68;2.20;;;;;;;10.40;75.57;98300.53;5110350;28;20533;-64
2022/04/07 09:59:42;;;;;;;6.10;2.10;;;;;;;10.33;74.68;98289.78;5110805;28;20481;-64
2022/04/07 10:02:08;;;;;;;6.63;1.98;;;;;;;10.28;73.73;98296.63;5110810;28;20037;-64
2022/04/07 10:04:34;;;;;;;6.05;2.08;;;;;;;10.31;75.18;98290.97;5112846;28;20027;-64
2022/04/07 10:07:02;;;;;;;7.63;2.40;;;;;;;10.46;77.30;98296.31;5128097;28;20031;-65
2022/04/07 10:09:27;;;;;;;3.42;2.00;;;;;;;10.50;74.71;98306.41;5129837;28;20030;-65
2022/04/07 10:11:54;;;;;;;6.75;2.38;;;;;;;10.43;72.73;98302.81;5129864;28;20031;-64
2022/04/07 10:14:23;;;;;;;6.15;2.28;;;;;;;10.46;73.37;98312.22;5130992;27;20038;-64
2022/04/07 10:16:48;;;;;;;4.05;1.80;;;;;;;10.57;67.06;98306.50;5111486;28;20043;-64
2022/04/07 10:19:22;;;;;;;4.93;2.10;;;;;;;10.76;68.32;98321.09;5119129;27;20045;-64
2022/04/07 10:21:55;;;;;;;7.82;1.75;;;;;;;10.99;67.43;98315.72;5131384;27;20384;-64
2022/04/07 10:24:46;;;;;;;4.85;1.50;;;;;;;11.29;66.25;98310.38;5125516;27;20032;-64
2022/04/07 10:27:14;;;;;;;8.27;1.70;;;;;;;11.53;65.03;98314.59;5119694;27;20047;-65
2022/04/07 10:29:40;;;;;;;9.68;1.92;;;;;;;11.81;65.41;98306.72;5123956;27;20027;-65
2022/04/07 10:32:11;;;;;;;5.18;1.60;;;;;;;12.11;63.48;98306.66;5134232;27;20035;-65
2022/04/07 10:34:52;;;;;;;7.45;1.98;;;;;;;12.27;62.69;98312.75;5124193;27;20039;-65
2022/04/07 10:37:28;;;;;;;4.82;1.48;;;;;;;12.25;60.99;98320.91;5128637;27;20031;-65
2022/04/07 10:39:53;;;;;;;8.10;2.00;;;;;;;12.40;63.90;98328.81;5116538;27;20024;-64
2022/04/07 10:42:57;;;;;;;13.03;2.43;;;;;;;12.62;65.12;98331.47;5106301;27;20019;-65
2022/04/07 10:45:41;;;;;;;8.52;2.50;;;;;;;12.63;63.50;98343.78;5113602;28;20293;-64
2022/04/07 10:48:30;;;;;;;7.15;2.15;;;;;;;12.49;62.30;98358.78;5113566;27;20439;-65
2022/04/07 10:51:08;;;;;;;9.45;2.05;;;;;;;12.21;59.74;98357.72;5108660;27;20039;-62
2022/04/07 10:53:36;;;;;;;7.67;2.23;;;;;;;12.09;59.08;98367.22;5113147;27;20079;-63
2022/04/07 10:56:06;;;;;;;6.93;2.17;;;;;;;12.20;60.19;98363.25;5113222;27;20484;-62
2022/04/07 10:58:48;;;;;;;;;;;;;;;12.47;61.32;98364.31;5112852;27;20110;-63
2022/04/07 11:01:26;;;;;;;10.95;2.15;;;;;;;12.40;58.81;98366.91;5112912;27;19923;-62
2022/04/07 11:04:22;;;;;;;10.48;2.40;;;;;;;12.35;58.72;98377.31;5113379;27;20262;-64
2022/04/07 11:07:14;;;;;;;11.48;2.13;;;;;;;12.23;57.52;98384.16;5113100;28;20035;-64
2022/04/07 11:09:47;;;;;;;11.98;2.33;;;;;;;12.35;57.58;98385.28;5120339;27;20387;-65
2022/04/07 11:12:40;;;;;;;7.95;2.45;;;;;;;12.49;57.85;98380.09;5133692;27;20026;-64
2022/04/07 11:15:05;;;;;;;9.25;2.28;;;;;;;12.59;56.74;98380.63;5109685;27;20035;-64
2022/04/07 11:17:35;;;;;;;14.60;2.70;;;;;;;12.70;56.45;98392.59;5122492;27;20062;-64
2022/04/07 11:20:16;;;;;;;12.93;2.95;;;;;;;12.96;57.77;98413.31;5120511;27;20432;-64
2022/04/07 11:22:51;;;;;;;10.73;2.35;;;;;;;13.12;58.90;98406.84;5112037;28;20485;-64
2022/04/07 11:25:25;;;;;;;9.00;2.08;;;;;;;13.28;55.31;98424.41;5112507;27;20046;-64
2022/04/07 11:28:01;;;;;;;11.90;2.30;;;;;;;13.42;56.63;98409.34;5113187;28;20450;-64
2022/04/07 11:30:36;;;;;;;14.38;2.58;;;;;;;13.41;55.77;98418.38;5112189;28;20438;-64
2022/04/07 11:33:26;;;;;;;7.35;2.30;;;;;;;13.32;52.12;98431.84;5112916;27;20034;-64
2022/04/07 11:36:00;;;;;;;7.68;2.10;;;;;;;13.14;53.35;98450.16;5113203;28;20059;-64
2022/04/07 11:38:29;;;;;;;9.80;2.50;;;;;;;12.89;51.16;98441.72;5127048;27;20472;-64
2022/04/07 11:41:02;;;;;;;;;;;;;;;12.98;55.74;98455.75;5116748;27;20110;-64
2022/04/07 11:43:27;;;;;;;10.75;3.10;;;;;;;12.60;52.40;98446.16;5112931;28;19989;-64
2022/04/07 11:45:55;;;;;;;12.40;2.80;;;;;;;12.45;52.51;98464.84;5111562;28;20031;-64